sensor_id;sensor_type;location;lat;lon;timestamp;P1;durP1;ratioP1;P2;durP2;ratioP2
9689;SDS011;4884;42.614;23.340;2023-04-03T00:00:43;19.37;;;12.37;;
9689;SDS011;4884;42.614;23.340;2023-04-03T00:03:08;7.63;;;5.50;;
9689;SDS011;4884;42.614;23.340;2023-04-03T00:05:34;8.47;;;5.53;;
9689;SDS011;4884;42.614;23.340;2023-04-03T00:08:00;5.73;;;3.63;;
9689;SDS011;4884;42.614;23.340;2023-04-03T00:10:27;2.73;;;1.90;;
9689;SDS011;4884;42.614;23.340;2023-04-03T00:12:52;2.10;;;1.90;;
9689;SDS011;4884;42.614;23.340;2023-04-03T00:15:18;3.43;;;2.10;;
9689;SDS011;4884;42.614;23.340;2023-04-03T00:17:43;2.40;;;1.93;;
9689;SDS011;4884;42.614;23.340;2023-04-03T00:20:09;2.27;;;1.90;;
9689;SDS011;4884;42.614;23.340;2023-04-03T00:22:35;1.80;;;1.60;;
9689;SDS011;4884;42.614;23.340;2023-04-03T00:25:00;1.40;;;1.30;;
9689;SDS011;4884;42.614;23.340;2023-04-03T00:27:26;2.33;;;2.10;;
9689;SDS011;4884;42.614;23.340;2023-04-03T00:29:51;1.50;;;1.40;;
9689;SDS011;4884;42.614;23.340;2023-04-03T00:32:16;9.67;;;7.13;;
9689;SDS011;4884;42.614;23.340;2023-04-03T00:34:42;4.27;;;3.03;;
9689;SDS011;4884;42.614;23.340;2023-04-03T00:37:07;2.47;;;1.93;;
9689;SDS011;4884;42.614;23.340;2023-04-03T00:39:32;8.63;;;7.30;;
9689;SDS011;4884;42.614;23.340;2023-04-03T00:41:58;15.60;;;12.13;;
9689;SDS011;4884;42.614;23.340;2023-04-03T00:46:58;21.50;;;13.70;;
9689;SDS011;4884;42.614;23.340;2023-04-03T00:49:23;23.50;;;14.47;;
9689;SDS011;4884;42.614;23.340;2023-04-03T00:51:49;18.17;;;12.57;;
9689;SDS011;4884;42.614;23.340;2023-04-03T00:54:14;10.83;;;6.53;;
9689;SDS011;4884;42.614;23.340;2023-04-03T00:56:40;2.63;;;2.13;;
9689;SDS011;4884;42.614;23.340;2023-04-03T00:59:08;4.73;;;2.80;;
9689;SDS011;4884;42.614;23.340;2023-04-03T01:01:36;3.20;;;2.40;;
9689;SDS011;4884;42.614;23.340;2023-04-03T01:04:02;3.07;;;1.80;;
9689;SDS011;4884;42.614;23.340;2023-04-03T01:06:33;2.13;;;1.93;;
9689;SDS011;4884;42.614;23.340;2023-04-03T01:09:00;2.90;;;2.17;;
9689;SDS011;4884;42.614;23.340;2023-04-03T01:11:26;3.37;;;2.53;;
9689;SDS011;4884;42.614;23.340;2023-04-03T01:13:51;1.93;;;1.53;;
9689;SDS011;4884;42.614;23.340;2023-04-03T01:16:17;1.93;;;1.70;;
9689;SDS011;4884;42.614;23.340;2023-04-03T01:18:43;2.50;;;1.83;;
9689;SDS011;4884;42.614;23.340;2023-04-03T01:26:51;3.00;;;1.90;;
9689;SDS011;4884;42.614;23.340;2023-04-03T01:29:17;2.00;;;1.80;;
9689;SDS011;4884;42.614;23.340;2023-04-03T01:34:18;1.90;;;1.57;;
9689;SDS011;4884;42.614;23.340;2023-04-03T01:36:43;2.73;;;1.80;;
9689;SDS011;4884;42.614;23.340;2023-04-03T01:39:09;1.67;;;1.57;;
9689;SDS011;4884;42.614;23.340;2023-04-03T01:41:34;3.67;;;1.90;;
9689;SDS011;4884;42.614;23.340;2023-04-03T01:44:00;2.10;;;1.90;;
9689;SDS011;4884;42.614;23.340;2023-04-03T01:46:25;2.00;;;1.80;;
9689;SDS011;4884;42.614;23.340;2023-04-03T01:48:51;2.37;;;2.17;;
9689;SDS011;4884;42.614;23.340;2023-04-03T01:51:16;2.00;;;1.90;;
9689;SDS011;4884;42.614;23.340;2023-04-03T01:53:42;2.93;;;2.70;;
9689;SDS011;4884;42.614;23.340;2023-04-03T01:56:07;2.60;;;2.30;;
9689;SDS011;4884;42.614;23.340;2023-04-03T01:58:33;2.10;;;1.90;;
9689;SDS011;4884;42.614;23.340;2023-04-03T02:00:58;2.17;;;1.70;;
9689;SDS011;4884;42.614;23.340;2023-04-03T02:03:24;3.10;;;1.80;;
9689;SDS011;4884;42.614;23.340;2023-04-03T02:05:49;2.40;;;1.60;;
9689;SDS011;4884;42.614;23.340;2023-04-03T02:08:15;1.33;;;1.23;;
9689;SDS011;4884;42.614;23.340;2023-04-03T02:10:42;1.93;;;1.70;;
9689;SDS011;4884;42.614;23.340;2023-04-03T02:13:08;1.77;;;1.67;;
9689;SDS011;4884;42.614;23.340;2023-04-03T02:15:37;2.30;;;1.53;;
9689;SDS011;4884;42.614;23.340;2023-04-03T02:18:03;1.67;;;1.53;;
9689;SDS011;4884;42.614;23.340;2023-04-03T02:20:28;2.20;;;1.73;;
9689;SDS011;4884;42.614;23.340;2023-04-03T02:22:53;1.70;;;1.50;;
9689;SDS011;4884;42.614;23.340;2023-04-03T02:25:19;1.67;;;1.57;;
9689;SDS011;4884;42.614;23.340;2023-04-03T02:27:45;2.73;;;1.43;;
9689;SDS011;4884;42.614;23.340;2023-04-03T02:30:10;1.90;;;1.63;;
9689;SDS011;4884;42.614;23.340;2023-04-03T02:32:36;3.27;;;2.13;;
9689;SDS011;4884;42.614;23.340;2023-04-03T02:35:01;6.43;;;2.67;;
9689;SDS011;4884;42.614;23.340;2023-04-03T02:37:27;3.87;;;2.97;;
9689;SDS011;4884;42.614;23.340;2023-04-03T02:39:52;6.60;;;6.00;;
9689;SDS011;4884;42.614;23.340;2023-04-03T02:42:18;7.77;;;5.53;;
9689;SDS011;4884;42.614;23.340;2023-04-03T02:44:43;5.73;;;4.60;;
9689;SDS011;4884;42.614;23.340;2023-04-03T02:47:09;3.50;;;3.20;;
9689;SDS011;4884;42.614;23.340;2023-04-03T02:49:34;2.83;;;2.50;;
9689;SDS011;4884;42.614;23.340;2023-04-03T02:52:00;5.63;;;3.53;;
9689;SDS011;4884;42.614;23.340;2023-04-03T02:54:25;3.83;;;3.03;;
9689;SDS011;4884;42.614;23.340;2023-04-03T02:56:53;4.83;;;3.13;;
9689;SDS011;4884;42.614;23.340;2023-04-03T02:59:19;8.13;;;4.60;;
9689;SDS011;4884;42.614;23.340;2023-04-03T03:01:45;7.00;;;4.67;;
9689;SDS011;4884;42.614;23.340;2023-04-03T03:04:11;8.83;;;5.77;;
9689;SDS011;4884;42.614;23.340;2023-04-03T03:06:36;8.50;;;4.63;;
9689;SDS011;4884;42.614;23.340;2023-04-03T03:09:01;7.13;;;4.77;;
9689;SDS011;4884;42.614;23.340;2023-04-03T03:11:28;45.87;;;23.97;;
9689;SDS011;4884;42.614;23.340;2023-04-03T03:13:55;96.00;;;46.70;;
9689;SDS011;4884;42.614;23.340;2023-04-03T03:16:20;79.17;;;41.77;;
9689;SDS011;4884;42.614;23.340;2023-04-03T03:18:46;132.10;;;72.43;;
9689;SDS011;4884;42.614;23.340;2023-04-03T03:21:11;74.80;;;47.90;;
9689;SDS011;4884;42.614;23.340;2023-04-03T03:23:37;51.37;;;35.60;;
9689;SDS011;4884;42.614;23.340;2023-04-03T03:26:03;62.90;;;41.27;;
9689;SDS011;4884;42.614;23.340;2023-04-03T03:28:30;91.43;;;57.60;;
9689;SDS011;4884;42.614;23.340;2023-04-03T03:30:56;64.83;;;40.10;;
9689;SDS011;4884;42.614;23.340;2023-04-03T03:33:22;72.10;;;45.67;;
9689;SDS011;4884;42.614;23.340;2023-04-03T03:35:48;23.63;;;14.60;;
9689;SDS011;4884;42.614;23.340;2023-04-03T03:38:14;22.50;;;11.50;;
9689;SDS011;4884;42.614;23.340;2023-04-03T03:40:40;28.00;;;19.10;;
9689;SDS011;4884;42.614;23.340;2023-04-03T03:43:05;54.23;;;33.43;;
9689;SDS011;4884;42.614;23.340;2023-04-03T03:45:31;60.57;;;35.63;;
9689;SDS011;4884;42.614;23.340;2023-04-03T03:47:57;38.10;;;24.73;;
9689;SDS011;4884;42.614;23.340;2023-04-03T03:50:22;59.03;;;38.20;;
9689;SDS011;4884;42.614;23.340;2023-04-03T03:52:47;70.63;;;45.87;;
9689;SDS011;4884;42.614;23.340;2023-04-03T03:55:13;75.40;;;46.40;;
9689;SDS011;4884;42.614;23.340;2023-04-03T03:57:38;69.90;;;43.33;;
9689;SDS011;4884;42.614;23.340;2023-04-03T04:00:04;53.53;;;33.40;;
9689;SDS011;4884;42.614;23.340;2023-04-03T04:02:30;56.07;;;36.57;;
9689;SDS011;4884;42.614;23.340;2023-04-03T04:04:55;56.00;;;35.97;;
9689;SDS011;4884;42.614;23.340;2023-04-03T04:07:21;30.40;;;20.97;;
9689;SDS011;4884;42.614;23.340;2023-04-03T04:09:46;40.40;;;27.30;;
9689;SDS011;4884;42.614;23.340;2023-04-03T04:12:12;17.60;;;14.10;;
9689;SDS011;4884;42.614;23.340;2023-04-03T04:14:37;13.10;;;10.20;;
9689;SDS011;4884;42.614;23.340;2023-04-03T04:17:02;13.83;;;11.00;;
9689;SDS011;4884;42.614;23.340;2023-04-03T04:19:28;14.83;;;9.77;;
9689;SDS011;4884;42.614;23.340;2023-04-03T04:21:54;31.27;;;22.30;;
9689;SDS011;4884;42.614;23.340;2023-04-03T04:24:19;31.93;;;25.03;;
9689;SDS011;4884;42.614;23.340;2023-04-03T04:26:44;24.13;;;19.90;;
9689;SDS011;4884;42.614;23.340;2023-04-03T04:29:10;10.00;;;8.50;;
9689;SDS011;4884;42.614;23.340;2023-04-03T04:31:36;7.27;;;6.40;;
9689;SDS011;4884;42.614;23.340;2023-04-03T04:34:01;6.30;;;5.70;;
9689;SDS011;4884;42.614;23.340;2023-04-03T04:36:26;6.70;;;6.10;;
9689;SDS011;4884;42.614;23.340;2023-04-03T04:38:52;4.27;;;3.97;;
9689;SDS011;4884;42.614;23.340;2023-04-03T04:41:19;2.87;;;2.63;;
9689;SDS011;4884;42.614;23.340;2023-04-03T04:43:47;3.73;;;2.90;;
9689;SDS011;4884;42.614;23.340;2023-04-03T04:46:15;3.60;;;2.80;;
9689;SDS011;4884;42.614;23.340;2023-04-03T04:48:41;2.70;;;2.23;;
9689;SDS011;4884;42.614;23.340;2023-04-03T04:51:06;3.97;;;3.67;;
9689;SDS011;4884;42.614;23.340;2023-04-03T04:53:32;3.80;;;3.10;;
9689;SDS011;4884;42.614;23.340;2023-04-03T04:55:57;3.53;;;2.80;;
9689;SDS011;4884;42.614;23.340;2023-04-03T04:58:23;4.33;;;3.33;;
9689;SDS011;4884;42.614;23.340;2023-04-03T05:00:48;5.87;;;4.70;;
9689;SDS011;4884;42.614;23.340;2023-04-03T05:03:14;4.93;;;4.53;;
9689;SDS011;4884;42.614;23.340;2023-04-03T05:05:40;10.27;;;6.83;;
9689;SDS011;4884;42.614;23.340;2023-04-03T05:08:05;9.23;;;6.30;;
9689;SDS011;4884;42.614;23.340;2023-04-03T05:10:31;7.23;;;5.13;;
9689;SDS011;4884;42.614;23.340;2023-04-03T05:12:56;5.83;;;4.13;;
9689;SDS011;4884;42.614;23.340;2023-04-03T05:15:22;5.93;;;3.87;;
9689;SDS011;4884;42.614;23.340;2023-04-03T05:17:48;6.50;;;5.43;;
9689;SDS011;4884;42.614;23.340;2023-04-03T05:20:13;9.90;;;5.20;;
9689;SDS011;4884;42.614;23.340;2023-04-03T05:22:39;7.73;;;4.70;;
9689;SDS011;4884;42.614;23.340;2023-04-03T05:25:04;7.43;;;5.73;;
9689;SDS011;4884;42.614;23.340;2023-04-03T05:27:30;6.20;;;4.70;;
9689;SDS011;4884;42.614;23.340;2023-04-03T05:29:56;12.60;;;6.73;;
9689;SDS011;4884;42.614;23.340;2023-04-03T05:32:23;11.27;;;7.07;;
9689;SDS011;4884;42.614;23.340;2023-04-03T05:34:50;13.13;;;9.30;;
9689;SDS011;4884;42.614;23.340;2023-04-03T05:37:15;11.47;;;10.00;;
9689;SDS011;4884;42.614;23.340;2023-04-03T05:39:41;22.47;;;20.23;;
9689;SDS011;4884;42.614;23.340;2023-04-03T05:42:06;8.60;;;7.73;;
9689;SDS011;4884;42.614;23.340;2023-04-03T05:44:32;19.60;;;17.83;;
9689;SDS011;4884;42.614;23.340;2023-04-03T05:46:58;14.37;;;13.17;;
9689;SDS011;4884;42.614;23.340;2023-04-03T05:49:23;8.33;;;6.97;;
9689;SDS011;4884;42.614;23.340;2023-04-03T05:51:49;4.83;;;4.37;;
9689;SDS011;4884;42.614;23.340;2023-04-03T05:54:21;7.47;;;3.90;;
9689;SDS011;4884;42.614;23.340;2023-04-03T05:56:49;6.23;;;4.13;;
9689;SDS011;4884;42.614;23.340;2023-04-03T05:59:15;6.80;;;5.80;;
9689;SDS011;4884;42.614;23.340;2023-04-03T06:01:41;10.87;;;8.03;;
9689;SDS011;4884;42.614;23.340;2023-04-03T06:04:06;11.53;;;9.43;;
9689;SDS011;4884;42.614;23.340;2023-04-03T06:06:47;9.40;;;6.13;;
9689;SDS011;4884;42.614;23.340;2023-04-03T06:09:17;7.80;;;6.20;;
9689;SDS011;4884;42.614;23.340;2023-04-03T06:11:45;13.40;;;8.97;;
9689;SDS011;4884;42.614;23.340;2023-04-03T06:14:11;9.43;;;7.13;;
9689;SDS011;4884;42.614;23.340;2023-04-03T06:16:36;7.97;;;6.27;;
9689;SDS011;4884;42.614;23.340;2023-04-03T06:19:03;8.00;;;5.70;;
9689;SDS011;4884;42.614;23.340;2023-04-03T06:21:29;7.43;;;5.10;;
9689;SDS011;4884;42.614;23.340;2023-04-03T06:23:55;8.80;;;6.90;;
9689;SDS011;4884;42.614;23.340;2023-04-03T06:26:20;11.37;;;6.90;;
9689;SDS011;4884;42.614;23.340;2023-04-03T06:28:46;16.93;;;8.67;;
9689;SDS011;4884;42.614;23.340;2023-04-03T06:31:11;13.67;;;8.07;;
9689;SDS011;4884;42.614;23.340;2023-04-03T06:33:36;14.40;;;8.37;;
9689;SDS011;4884;42.614;23.340;2023-04-03T06:36:04;11.73;;;10.53;;
9689;SDS011;4884;42.614;23.340;2023-04-03T06:38:30;12.57;;;11.27;;
9689;SDS011;4884;42.614;23.340;2023-04-03T06:40:57;16.13;;;11.87;;
9689;SDS011;4884;42.614;23.340;2023-04-03T06:43:22;27.80;;;13.37;;
9689;SDS011;4884;42.614;23.340;2023-04-03T06:45:47;15.23;;;13.63;;
9689;SDS011;4884;42.614;23.340;2023-04-03T06:48:13;13.50;;;12.13;;
9689;SDS011;4884;42.614;23.340;2023-04-03T06:50:38;13.60;;;10.20;;
9689;SDS011;4884;42.614;23.340;2023-04-03T06:53:04;18.13;;;11.60;;
9689;SDS011;4884;42.614;23.340;2023-04-03T06:55:30;10.73;;;9.10;;
9689;SDS011;4884;42.614;23.340;2023-04-03T06:57:56;9.17;;;8.07;;
9689;SDS011;4884;42.614;23.340;2023-04-03T07:00:22;9.93;;;8.87;;
9689;SDS011;4884;42.614;23.340;2023-04-03T07:02:47;11.30;;;10.20;;
9689;SDS011;4884;42.614;23.340;2023-04-03T07:05:13;12.97;;;9.60;;
9689;SDS011;4884;42.614;23.340;2023-04-03T07:07:38;11.37;;;10.17;;
9689;SDS011;4884;42.614;23.340;2023-04-03T07:10:04;13.70;;;9.90;;
9689;SDS011;4884;42.614;23.340;2023-04-03T07:12:31;16.13;;;9.90;;
9689;SDS011;4884;42.614;23.340;2023-04-03T07:14:56;14.47;;;10.53;;
9689;SDS011;4884;42.614;23.340;2023-04-03T07:17:22;18.07;;;9.97;;
9689;SDS011;4884;42.614;23.340;2023-04-03T07:19:47;13.73;;;9.03;;
9689;SDS011;4884;42.614;23.340;2023-04-03T07:22:13;14.53;;;9.77;;
9689;SDS011;4884;42.614;23.340;2023-04-03T07:24:38;16.43;;;9.40;;
9689;SDS011;4884;42.614;23.340;2023-04-03T07:27:03;13.07;;;9.93;;
9689;SDS011;4884;42.614;23.340;2023-04-03T07:29:29;14.23;;;10.63;;
9689;SDS011;4884;42.614;23.340;2023-04-03T07:31:55;16.47;;;10.63;;
9689;SDS011;4884;42.614;23.340;2023-04-03T07:34:21;14.13;;;10.97;;
9689;SDS011;4884;42.614;23.340;2023-04-03T07:36:46;18.20;;;11.30;;
9689;SDS011;4884;42.614;23.340;2023-04-03T07:39:12;17.40;;;11.50;;
9689;SDS011;4884;42.614;23.340;2023-04-03T07:41:37;14.47;;;9.97;;
9689;SDS011;4884;42.614;23.340;2023-04-03T07:44:03;14.70;;;10.33;;
9689;SDS011;4884;42.614;23.340;2023-04-03T07:46:29;13.73;;;9.33;;
9689;SDS011;4884;42.614;23.340;2023-04-03T07:48:55;18.33;;;10.70;;
9689;SDS011;4884;42.614;23.340;2023-04-03T07:51:20;22.03;;;10.97;;
9689;SDS011;4884;42.614;23.340;2023-04-03T07:53:45;14.80;;;10.50;;
9689;SDS011;4884;42.614;23.340;2023-04-03T07:56:11;13.43;;;10.63;;
9689;SDS011;4884;42.614;23.340;2023-04-03T07:58:36;16.90;;;11.37;;
9689;SDS011;4884;42.614;23.340;2023-04-03T08:01:02;17.43;;;11.40;;
9689;SDS011;4884;42.614;23.340;2023-04-03T08:03:28;17.67;;;11.17;;
9689;SDS011;4884;42.614;23.340;2023-04-03T08:05:53;19.57;;;12.77;;
9689;SDS011;4884;42.614;23.340;2023-04-03T08:08:20;17.50;;;12.70;;
9689;SDS011;4884;42.614;23.340;2023-04-03T08:10:50;18.93;;;11.83;;
9689;SDS011;4884;42.614;23.340;2023-04-03T08:13:17;19.17;;;11.70;;
9689;SDS011;4884;42.614;23.340;2023-04-03T08:15:43;20.40;;;13.43;;
9689;SDS011;4884;42.614;23.340;2023-04-03T08:18:08;18.83;;;13.03;;
9689;SDS011;4884;42.614;23.340;2023-04-03T08:20:34;21.67;;;12.97;;
9689;SDS011;4884;42.614;23.340;2023-04-03T08:22:59;19.67;;;12.90;;
9689;SDS011;4884;42.614;23.340;2023-04-03T08:25:25;24.57;;;13.33;;
9689;SDS011;4884;42.614;23.340;2023-04-03T08:27:50;19.17;;;12.60;;
9689;SDS011;4884;42.614;23.340;2023-04-03T08:30:16;17.83;;;12.93;;
9689;SDS011;4884;42.614;23.340;2023-04-03T08:32:42;18.03;;;12.80;;
9689;SDS011;4884;42.614;23.340;2023-04-03T08:35:09;15.20;;;11.97;;
9689;SDS011;4884;42.614;23.340;2023-04-03T08:37:35;17.20;;;12.67;;
9689;SDS011;4884;42.614;23.340;2023-04-03T08:40:02;21.47;;;11.93;;
9689;SDS011;4884;42.614;23.340;2023-04-03T08:45:10;11.80;;;9.97;;
9689;SDS011;4884;42.614;23.340;2023-04-03T08:47:40;22.83;;;10.60;;
9689;SDS011;4884;42.614;23.340;2023-04-03T08:50:11;20.10;;;9.07;;
9689;SDS011;4884;42.614;23.340;2023-04-03T08:52:40;11.73;;;9.00;;
9689;SDS011;4884;42.614;23.340;2023-04-03T08:55:24;14.53;;;10.10;;
9689;SDS011;4884;42.614;23.340;2023-04-03T08:58:00;12.40;;;10.90;;
9689;SDS011;4884;42.614;23.340;2023-04-03T09:00:28;13.63;;;8.87;;
9689;SDS011;4884;42.614;23.340;2023-04-03T09:02:57;8.53;;;7.47;;
9689;SDS011;4884;42.614;23.340;2023-04-03T09:14:13;2.07;;;1.57;;
9689;SDS011;4884;42.614;23.340;2023-04-03T09:22:23;1.80;;;1.70;;
9689;SDS011;4884;42.614;23.340;2023-04-03T09:25:01;1.93;;;1.83;;
9689;SDS011;4884;42.614;23.340;2023-04-03T09:27:31;1.50;;;1.40;;
9689;SDS011;4884;42.614;23.340;2023-04-03T09:29:56;1.30;;;1.13;;
9689;SDS011;4884;42.614;23.340;2023-04-03T09:32:29;1.50;;;1.40;;
9689;SDS011;4884;42.614;23.340;2023-04-03T09:34:58;1.80;;;1.20;;
9689;SDS011;4884;42.614;23.340;2023-04-03T09:37:34;3.63;;;1.43;;
9689;SDS011;4884;42.614;23.340;2023-04-03T09:42:55;1.80;;;1.23;;
9689;SDS011;4884;42.614;23.340;2023-04-03T09:53:28;1.60;;;1.50;;
9689;SDS011;4884;42.614;23.340;2023-04-03T09:55:54;2.40;;;1.70;;
9689;SDS011;4884;42.614;23.340;2023-04-03T09:58:24;2.80;;;1.40;;
9689;SDS011;4884;42.614;23.340;2023-04-03T10:00:55;3.53;;;1.60;;
9689;SDS011;4884;42.614;23.340;2023-04-03T10:03:32;2.20;;;2.00;;
9689;SDS011;4884;42.614;23.340;2023-04-03T10:06:04;1.57;;;1.47;;
9689;SDS011;4884;42.614;23.340;2023-04-03T10:08:59;1.73;;;1.63;;
9689;SDS011;4884;42.614;23.340;2023-04-03T10:11:25;2.40;;;1.73;;
9689;SDS011;4884;42.614;23.340;2023-04-03T10:13:55;1.73;;;1.40;;
9689;SDS011;4884;42.614;23.340;2023-04-03T10:16:25;3.73;;;2.27;;
9689;SDS011;4884;42.614;23.340;2023-04-03T10:19:02;4.53;;;3.47;;
9689;SDS011;4884;42.614;23.340;2023-04-03T10:26:49;2.63;;;1.90;;
9689;SDS011;4884;42.614;23.340;2023-04-03T10:32:10;3.53;;;2.10;;
9689;SDS011;4884;42.614;23.340;2023-04-03T10:34:44;3.70;;;1.83;;
9689;SDS011;4884;42.614;23.340;2023-04-03T10:37:16;2.93;;;1.77;;
9689;SDS011;4884;42.614;23.340;2023-04-03T10:54:21;2.60;;;2.40;;
9689;SDS011;4884;42.614;23.340;2023-04-03T11:02:01;4.90;;;2.53;;
9689;SDS011;4884;42.614;23.340;2023-04-03T11:04:31;5.33;;;2.50;;
9689;SDS011;4884;42.614;23.340;2023-04-03T11:07:00;2.83;;;2.43;;
9689;SDS011;4884;42.614;23.340;2023-04-03T11:12:01;4.80;;;4.23;;
9689;SDS011;4884;42.614;23.340;2023-04-03T11:14:34;5.93;;;5.20;;
9689;SDS011;4884;42.614;23.340;2023-04-03T11:17:11;10.77;;;7.27;;
9689;SDS011;4884;42.614;23.340;2023-04-03T11:19:52;12.03;;;7.93;;
9689;SDS011;4884;42.614;23.340;2023-04-03T11:25:14;8.30;;;7.40;;
9689;SDS011;4884;42.614;23.340;2023-04-03T11:27:55;16.70;;;11.40;;
9689;SDS011;4884;42.614;23.340;2023-04-03T11:36:06;35.77;;;22.77;;
9689;SDS011;4884;42.614;23.340;2023-04-03T11:38:38;18.07;;;12.83;;
9689;SDS011;4884;42.614;23.340;2023-04-03T11:41:08;11.93;;;7.93;;
9689;SDS011;4884;42.614;23.340;2023-04-03T11:43:36;21.03;;;14.20;;
9689;SDS011;4884;42.614;23.340;2023-04-03T11:46:05;18.57;;;11.93;;
9689;SDS011;4884;42.614;23.340;2023-04-03T11:53:38;8.37;;;5.90;;
9689;SDS011;4884;42.614;23.340;2023-04-03T11:59:15;6.33;;;5.73;;
9689;SDS011;4884;42.614;23.340;2023-04-03T12:01:43;8.10;;;7.30;;
9689;SDS011;4884;42.614;23.340;2023-04-03T12:04:23;9.80;;;7.53;;
9689;SDS011;4884;42.614;23.340;2023-04-03T12:20:57;4.43;;;4.03;;
9689;SDS011;4884;42.614;23.340;2023-04-03T12:25:59;6.53;;;5.93;;
9689;SDS011;4884;42.614;23.340;2023-04-03T12:28:28;8.00;;;6.70;;
9689;SDS011;4884;42.614;23.340;2023-04-03T12:30:53;7.50;;;6.03;;
9689;SDS011;4884;42.614;23.340;2023-04-03T12:36:14;5.97;;;4.10;;
9689;SDS011;4884;42.614;23.340;2023-04-03T12:38:58;4.83;;;4.33;;
9689;SDS011;4884;42.614;23.340;2023-04-03T12:46:47;4.90;;;4.40;;
9689;SDS011;4884;42.614;23.340;2023-04-03T12:49:18;5.57;;;5.07;;
9689;SDS011;4884;42.614;23.340;2023-04-03T12:51:48;5.97;;;5.03;;
9689;SDS011;4884;42.614;23.340;2023-04-03T12:56:40;6.90;;;5.27;;
9689;SDS011;4884;42.614;23.340;2023-04-03T12:59:16;7.80;;;5.43;;
9689;SDS011;4884;42.614;23.340;2023-04-03T13:01:42;5.80;;;5.30;;
9689;SDS011;4884;42.614;23.340;2023-04-03T13:04:09;5.43;;;4.93;;
9689;SDS011;4884;42.614;23.340;2023-04-03T13:06:41;5.07;;;4.67;;
9689;SDS011;4884;42.614;23.340;2023-04-03T13:09:27;6.27;;;4.80;;
9689;SDS011;4884;42.614;23.340;2023-04-03T13:14:52;5.50;;;4.87;;
9689;SDS011;4884;42.614;23.340;2023-04-03T13:17:22;8.83;;;6.00;;
9689;SDS011;4884;42.614;23.340;2023-04-03T13:19:49;5.57;;;5.07;;
9689;SDS011;4884;42.614;23.340;2023-04-03T13:24:50;6.13;;;5.53;;
9689;SDS011;4884;42.614;23.340;2023-04-03T13:27:17;7.73;;;7.03;;
9689;SDS011;4884;42.614;23.340;2023-04-03T13:29:42;7.57;;;6.87;;
9689;SDS011;4884;42.614;23.340;2023-04-03T13:32:14;13.07;;;10.83;;
9689;SDS011;4884;42.614;23.340;2023-04-03T13:34:43;8.90;;;8.00;;
9689;SDS011;4884;42.614;23.340;2023-04-03T13:40:03;5.50;;;5.00;;
9689;SDS011;4884;42.614;23.340;2023-04-03T13:42:32;8.13;;;7.33;;
9689;SDS011;4884;42.614;23.340;2023-04-03T13:45:18;7.03;;;6.30;;
9689;SDS011;4884;42.614;23.340;2023-04-03T13:47:47;6.83;;;6.23;;
9689;SDS011;4884;42.614;23.340;2023-04-03T13:50:19;5.80;;;5.07;;
9689;SDS011;4884;42.614;23.340;2023-04-03T13:52:54;5.67;;;5.17;;
9689;SDS011;4884;42.614;23.340;2023-04-03T13:55:26;6.10;;;5.00;;
9689;SDS011;4884;42.614;23.340;2023-04-03T13:57:58;5.00;;;4.50;;
9689;SDS011;4884;42.614;23.340;2023-04-03T14:02:54;6.17;;;4.70;;
9689;SDS011;4884;42.614;23.340;2023-04-03T14:05:21;6.30;;;5.67;;
9689;SDS011;4884;42.614;23.340;2023-04-03T14:07:47;5.63;;;5.13;;
9689;SDS011;4884;42.614;23.340;2023-04-03T14:10:12;9.07;;;6.67;;
9689;SDS011;4884;42.614;23.340;2023-04-03T14:12:38;6.83;;;5.40;;
9689;SDS011;4884;42.614;23.340;2023-04-03T14:15:28;7.47;;;6.03;;
9689;SDS011;4884;42.614;23.340;2023-04-03T14:17:53;4.03;;;3.70;;
9689;SDS011;4884;42.614;23.340;2023-04-03T14:20:20;4.63;;;4.23;;
9689;SDS011;4884;42.614;23.340;2023-04-03T14:22:46;9.57;;;8.17;;
9689;SDS011;4884;42.614;23.340;2023-04-03T14:25:13;9.83;;;7.80;;
9689;SDS011;4884;42.614;23.340;2023-04-03T14:27:41;5.00;;;4.53;;
9689;SDS011;4884;42.614;23.340;2023-04-03T14:30:11;5.33;;;4.83;;
9689;SDS011;4884;42.614;23.340;2023-04-03T14:32:39;5.53;;;4.33;;
9689;SDS011;4884;42.614;23.340;2023-04-03T14:35:05;4.67;;;4.27;;
9689;SDS011;4884;42.614;23.340;2023-04-03T14:37:31;3.93;;;3.53;;
9689;SDS011;4884;42.614;23.340;2023-04-03T14:39:58;4.00;;;3.60;;
9689;SDS011;4884;42.614;23.340;2023-04-03T14:42:26;3.90;;;3.60;;
9689;SDS011;4884;42.614;23.340;2023-04-03T14:44:55;4.80;;;3.80;;
9689;SDS011;4884;42.614;23.340;2023-04-03T14:47:26;4.23;;;3.83;;
9689;SDS011;4884;42.614;23.340;2023-04-03T14:49:53;5.67;;;4.60;;
9689;SDS011;4884;42.614;23.340;2023-04-03T14:52:20;18.50;;;12.57;;
9689;SDS011;4884;42.614;23.340;2023-04-03T14:54:46;14.37;;;9.83;;
9689;SDS011;4884;42.614;23.340;2023-04-03T14:57:13;6.37;;;5.77;;
9689;SDS011;4884;42.614;23.340;2023-04-03T14:59:39;5.57;;;4.97;;
9689;SDS011;4884;42.614;23.340;2023-04-03T15:04:48;3.43;;;3.13;;
9689;SDS011;4884;42.614;23.340;2023-04-03T15:07:14;4.90;;;4.40;;
9689;SDS011;4884;42.614;23.340;2023-04-03T15:09:39;4.57;;;4.17;;
9689;SDS011;4884;42.614;23.340;2023-04-03T15:12:04;8.67;;;5.93;;
9689;SDS011;4884;42.614;23.340;2023-04-03T15:14:30;8.70;;;7.33;;
9689;SDS011;4884;42.614;23.340;2023-04-03T15:16:55;8.97;;;7.50;;
9689;SDS011;4884;42.614;23.340;2023-04-03T15:19:21;5.13;;;4.63;;
9689;SDS011;4884;42.614;23.340;2023-04-03T15:21:46;3.63;;;3.33;;
9689;SDS011;4884;42.614;23.340;2023-04-03T15:24:11;4.53;;;4.10;;
9689;SDS011;4884;42.614;23.340;2023-04-03T15:26:37;4.10;;;3.60;;
9689;SDS011;4884;42.614;23.340;2023-04-03T15:29:03;4.73;;;4.33;;
9689;SDS011;4884;42.614;23.340;2023-04-03T15:31:29;15.10;;;10.47;;
9689;SDS011;4884;42.614;23.340;2023-04-03T15:33:54;25.30;;;16.87;;
9689;SDS011;4884;42.614;23.340;2023-04-03T15:36:20;10.67;;;7.77;;
9689;SDS011;4884;42.614;23.340;2023-04-03T15:38:45;17.53;;;12.03;;
9689;SDS011;4884;42.614;23.340;2023-04-03T15:41:10;13.30;;;11.10;;
9689;SDS011;4884;42.614;23.340;2023-04-03T15:43:36;6.43;;;5.83;;
9689;SDS011;4884;42.614;23.340;2023-04-03T15:46:01;5.90;;;5.30;;
9689;SDS011;4884;42.614;23.340;2023-04-03T15:48:27;4.20;;;3.80;;
9689;SDS011;4884;42.614;23.340;2023-04-03T15:50:53;4.77;;;4.37;;
9689;SDS011;4884;42.614;23.340;2023-04-03T15:53:19;3.70;;;3.40;;
9689;SDS011;4884;42.614;23.340;2023-04-03T15:55:44;3.47;;;2.50;;
9689;SDS011;4884;42.614;23.340;2023-04-03T15:58:09;4.83;;;4.33;;
9689;SDS011;4884;42.614;23.340;2023-04-03T16:00:36;5.03;;;4.53;;
9689;SDS011;4884;42.614;23.340;2023-04-03T16:03:04;3.80;;;3.50;;
9689;SDS011;4884;42.614;23.340;2023-04-03T16:05:33;5.33;;;4.83;;
9689;SDS011;4884;42.614;23.340;2023-04-03T16:08:01;7.83;;;6.80;;
9689;SDS011;4884;42.614;23.340;2023-04-03T16:10:27;11.93;;;10.60;;
9689;SDS011;4884;42.614;23.340;2023-04-03T16:12:53;11.90;;;10.37;;
9689;SDS011;4884;42.614;23.340;2023-04-03T16:15:18;10.30;;;8.57;;
9689;SDS011;4884;42.614;23.340;2023-04-03T16:17:44;18.10;;;11.37;;
9689;SDS011;4884;42.614;23.340;2023-04-03T16:20:10;13.53;;;9.03;;
9689;SDS011;4884;42.614;23.340;2023-04-03T16:22:36;12.43;;;8.30;;
9689;SDS011;4884;42.614;23.340;2023-04-03T16:25:02;12.67;;;9.33;;
9689;SDS011;4884;42.614;23.340;2023-04-03T16:27:28;11.00;;;8.67;;
9689;SDS011;4884;42.614;23.340;2023-04-03T16:29:56;8.33;;;6.63;;
9689;SDS011;4884;42.614;23.340;2023-04-03T16:32:22;8.07;;;6.67;;
9689;SDS011;4884;42.614;23.340;2023-04-03T16:34:48;5.27;;;4.77;;
9689;SDS011;4884;42.614;23.340;2023-04-03T16:37:13;13.03;;;9.73;;
9689;SDS011;4884;42.614;23.340;2023-04-03T16:39:39;9.33;;;7.20;;
9689;SDS011;4884;42.614;23.340;2023-04-03T16:42:05;5.83;;;3.70;;
9689;SDS011;4884;42.614;23.340;2023-04-03T16:44:30;3.47;;;3.17;;
9689;SDS011;4884;42.614;23.340;2023-04-03T16:46:55;11.83;;;6.70;;
9689;SDS011;4884;42.614;23.340;2023-04-03T16:49:21;8.60;;;5.27;;
9689;SDS011;4884;42.614;23.340;2023-04-03T16:51:47;3.30;;;2.90;;
9689;SDS011;4884;42.614;23.340;2023-04-03T16:54:13;5.93;;;3.97;;
9689;SDS011;4884;42.614;23.340;2023-04-03T16:56:39;5.10;;;4.27;;
9689;SDS011;4884;42.614;23.340;2023-04-03T16:59:05;9.93;;;7.60;;